sensor_id;sensor_type;location;lat;lon;timestamp;P1;durP1;ratioP1;P2;durP2;ratioP2
78563;SDS011;67856;47.754;19.088;2023-08-24T00:01:37;7.50;;;6.50;;
78563;SDS011;67856;47.754;19.088;2023-08-24T00:04:40;7.53;;;6.10;;
78563;SDS011;67856;47.754;19.088;2023-08-24T00:07:42;7.20;;;6.00;;
78563;SDS011;67856;47.754;19.088;2023-08-24T00:10:45;7.38;;;6.57;;
78563;SDS011;67856;47.754;19.088;2023-08-24T00:13:50;6.80;;;6.10;;
78563;SDS011;67856;47.754;19.088;2023-08-24T00:16:53;8.13;;;6.20;;
78563;SDS011;67856;47.754;19.088;2023-08-24T00:19:55;6.57;;;5.67;;
78563;SDS011;67856;47.754;19.088;2023-08-24T00:22:58;7.70;;;6.18;;
78563;SDS011;67856;47.754;19.088;2023-08-24T00:26:01;8.07;;;6.20;;
78563;SDS011;67856;47.754;19.088;2023-08-24T00:29:03;7.53;;;6.30;;
78563;SDS011;67856;47.754;19.088;2023-08-24T00:32:06;6.85;;;6.15;;
78563;SDS011;67856;47.754;19.088;2023-08-24T00:35:10;7.10;;;6.30;;
78563;SDS011;67856;47.754;19.088;2023-08-24T00:38:12;7.15;;;6.05;;
78563;SDS011;67856;47.754;19.088;2023-08-24T00:41:15;6.93;;;6.22;;
78563;SDS011;67856;47.754;19.088;2023-08-24T00:44:19;7.53;;;6.13;;
78563;SDS011;67856;47.754;19.088;2023-08-24T00:47:21;7.32;;;6.13;;
78563;SDS011;67856;47.754;19.088;2023-08-24T00:50:24;6.50;;;5.80;;
78563;SDS011;67856;47.754;19.088;2023-08-24T00:53:28;7.68;;;6.25;;
78563;SDS011;67856;47.754;19.088;2023-08-24T00:56:32;7.53;;;6.20;;
78563;SDS011;67856;47.754;19.088;2023-08-24T00:59:35;7.20;;;6.10;;
78563;SDS011;67856;47.754;19.088;2023-08-24T01:02:39;8.32;;;5.95;;
78563;SDS011;67856;47.754;19.088;2023-08-24T01:05:42;7.30;;;6.17;;
78563;SDS011;67856;47.754;19.088;2023-08-24T01:08:44;7.25;;;6.30;;
78563;SDS011;67856;47.754;19.088;2023-08-24T01:15:06;6.95;;;6.00;;
78563;SDS011;67856;47.754;19.088;2023-08-24T01:18:12;6.40;;;5.68;;
78563;SDS011;67856;47.754;19.088;2023-08-24T01:21:19;6.97;;;5.80;;
78563;SDS011;67856;47.754;19.088;2023-08-24T01:24:31;7.10;;;6.05;;
78563;SDS011;67856;47.754;19.088;2023-08-24T01:27:39;7.75;;;6.00;;
78563;SDS011;67856;47.754;19.088;2023-08-24T01:30:42;6.80;;;6.10;;
78563;SDS011;67856;47.754;19.088;2023-08-24T01:33:45;7.53;;;6.05;;
78563;SDS011;67856;47.754;19.088;2023-08-24T01:36:48;6.60;;;5.90;;
78563;SDS011;67856;47.754;19.088;2023-08-24T01:40:13;7.38;;;5.70;;
78563;SDS011;67856;47.754;19.088;2023-08-24T01:43:20;7.30;;;6.00;;
78563;SDS011;67856;47.754;19.088;2023-08-24T01:46:42;6.85;;;5.80;;
78563;SDS011;67856;47.754;19.088;2023-08-24T01:49:45;6.43;;;5.75;;
78563;SDS011;67856;47.754;19.088;2023-08-24T01:52:48;6.73;;;5.80;;
78563;SDS011;67856;47.754;19.088;2023-08-24T01:55:51;6.93;;;6.13;;
78563;SDS011;67856;47.754;19.088;2023-08-24T01:58:55;6.80;;;5.80;;
78563;SDS011;67856;47.754;19.088;2023-08-24T02:01:59;6.32;;;5.70;;
78563;SDS011;67856;47.754;19.088;2023-08-24T02:05:02;6.80;;;6.03;;
78563;SDS011;67856;47.754;19.088;2023-08-24T02:08:05;7.47;;;5.97;;
78563;SDS011;67856;47.754;19.088;2023-08-24T02:11:07;7.65;;;5.90;;
78563;SDS011;67856;47.754;19.088;2023-08-24T02:14:10;6.63;;;5.93;;
78563;SDS011;67856;47.754;19.088;2023-08-24T02:17:13;6.80;;;6.10;;
78563;SDS011;67856;47.754;19.088;2023-08-24T02:20:16;6.15;;;5.55;;
78563;SDS011;67856;47.754;19.088;2023-08-24T02:23:18;6.47;;;5.77;;
78563;SDS011;67856;47.754;19.088;2023-08-24T02:26:21;7.05;;;5.70;;
78563;SDS011;67856;47.754;19.088;2023-08-24T02:29:23;7.65;;;6.00;;
78563;SDS011;67856;47.754;19.088;2023-08-24T02:32:26;6.68;;;5.78;;
78563;SDS011;67856;47.754;19.088;2023-08-24T02:35:28;7.43;;;6.18;;
78563;SDS011;67856;47.754;19.088;2023-08-24T02:38:30;7.27;;;6.03;;
78563;SDS011;67856;47.754;19.088;2023-08-24T02:41:34;7.65;;;5.85;;
78563;SDS011;67856;47.754;19.088;2023-08-24T02:44:37;6.93;;;6.00;;
78563;SDS011;67856;47.754;19.088;2023-08-24T02:47:39;6.55;;;5.85;;
78563;SDS011;67856;47.754;19.088;2023-08-24T02:50:45;7.38;;;5.78;;
78563;SDS011;67856;47.754;19.088;2023-08-24T02:53:49;6.47;;;5.43;;
78563;SDS011;67856;47.754;19.088;2023-08-24T02:56:55;6.38;;;5.63;;
78563;SDS011;67856;47.754;19.088;2023-08-24T02:59:57;6.47;;;5.78;;
78563;SDS011;67856;47.754;19.088;2023-08-24T03:03:00;6.50;;;5.80;;
78563;SDS011;67856;47.754;19.088;2023-08-24T03:06:03;6.65;;;5.80;;
78563;SDS011;67856;47.754;19.088;2023-08-24T03:09:07;8.63;;;6.17;;
78563;SDS011;67856;47.754;19.088;2023-08-24T03:12:09;6.13;;;5.53;;
78563;SDS011;67856;47.754;19.088;2023-08-24T03:15:12;6.65;;;5.88;;
78563;SDS011;67856;47.754;19.088;2023-08-24T03:18:15;6.13;;;5.28;;
78563;SDS011;67856;47.754;19.088;2023-08-24T03:21:18;7.40;;;5.90;;
78563;SDS011;67856;47.754;19.088;2023-08-24T03:24:20;5.80;;;5.20;;
78563;SDS011;67856;47.754;19.088;2023-08-24T03:27:23;6.68;;;5.45;;
78563;SDS011;67856;47.754;19.088;2023-08-24T03:30:25;5.85;;;5.25;;
78563;SDS011;67856;47.754;19.088;2023-08-24T03:33:28;5.97;;;5.38;;
78563;SDS011;67856;47.754;19.088;2023-08-24T03:36:30;6.30;;;5.63;;
78563;SDS011;67856;47.754;19.088;2023-08-24T03:39:33;6.60;;;5.73;;
78563;SDS011;67856;47.754;19.088;2023-08-24T03:42:39;6.35;;;5.50;;
78563;SDS011;67856;47.754;19.088;2023-08-24T03:45:41;6.10;;;5.38;;
78563;SDS011;67856;47.754;19.088;2023-08-24T03:48:45;6.60;;;5.90;;
78563;SDS011;67856;47.754;19.088;2023-08-24T03:51:47;6.68;;;5.78;;
78563;SDS011;67856;47.754;19.088;2023-08-24T03:54:51;7.87;;;5.97;;
78563;SDS011;67856;47.754;19.088;2023-08-24T03:57:53;6.40;;;5.63;;
78563;SDS011;67856;47.754;19.088;2023-08-24T04:00:59;6.50;;;5.80;;
78563;SDS011;67856;47.754;19.088;2023-08-24T04:04:02;6.10;;;5.50;;
78563;SDS011;67856;47.754;19.088;2023-08-24T04:07:05;6.70;;;5.80;;
78563;SDS011;67856;47.754;19.088;2023-08-24T04:10:07;6.13;;;5.53;;
78563;SDS011;67856;47.754;19.088;2023-08-24T04:13:10;8.20;;;5.93;;
78563;SDS011;67856;47.754;19.088;2023-08-24T04:16:12;11.45;;;6.82;;
78563;SDS011;67856;47.754;19.088;2023-08-24T04:19:14;9.23;;;6.47;;
78563;SDS011;67856;47.754;19.088;2023-08-24T04:22:17;11.68;;;7.65;;
78563;SDS011;67856;47.754;19.088;2023-08-24T04:25:19;10.83;;;7.03;;
78563;SDS011;67856;47.754;19.088;2023-08-24T04:28:22;9.63;;;6.90;;
78563;SDS011;67856;47.754;19.088;2023-08-24T04:31:25;14.05;;;7.13;;
78563;SDS011;67856;47.754;19.088;2023-08-24T04:34:27;12.00;;;7.43;;
78563;SDS011;67856;47.754;19.088;2023-08-24T04:37:30;17.45;;;7.65;;
78563;SDS011;67856;47.754;19.088;2023-08-24T04:40:44;20.10;;;7.60;;
78563;SDS011;67856;47.754;19.088;2023-08-24T04:43:54;15.38;;;7.25;;
78563;SDS011;67856;47.754;19.088;2023-08-24T04:46:56;10.40;;;6.85;;
78563;SDS011;67856;47.754;19.088;2023-08-24T04:49:59;13.93;;;7.25;;
78563;SDS011;67856;47.754;19.088;2023-08-24T04:53:01;11.63;;;6.80;;
78563;SDS011;67856;47.754;19.088;2023-08-24T04:56:04;15.07;;;6.80;;
78563;SDS011;67856;47.754;19.088;2023-08-24T04:59:06;11.98;;;6.93;;
78563;SDS011;67856;47.754;19.088;2023-08-24T05:02:10;10.63;;;6.90;;
78563;SDS011;67856;47.754;19.088;2023-08-24T05:05:12;11.23;;;6.82;;
78563;SDS011;67856;47.754;19.088;2023-08-24T05:08:17;12.50;;;6.90;;
78563;SDS011;67856;47.754;19.088;2023-08-24T05:11:22;9.73;;;6.40;;
78563;SDS011;67856;47.754;19.088;2023-08-24T05:14:26;9.05;;;7.15;;
78563;SDS011;67856;47.754;19.088;2023-08-24T05:17:28;9.95;;;7.47;;
78563;SDS011;67856;47.754;19.088;2023-08-24T05:20:32;10.02;;;6.80;;
78563;SDS011;67856;47.754;19.088;2023-08-24T05:23:34;10.70;;;6.88;;
78563;SDS011;67856;47.754;19.088;2023-08-24T05:26:37;9.30;;;6.90;;
78563;SDS011;67856;47.754;19.088;2023-08-24T05:29:39;13.32;;;7.10;;
78563;SDS011;67856;47.754;19.088;2023-08-24T05:32:42;8.98;;;6.65;;
78563;SDS011;67856;47.754;19.088;2023-08-24T05:35:44;11.23;;;7.00;;
78563;SDS011;67856;47.754;19.088;2023-08-24T05:38:47;8.90;;;6.82;;
78563;SDS011;67856;47.754;19.088;2023-08-24T05:42:07;9.87;;;7.40;;
78563;SDS011;67856;47.754;19.088;2023-08-24T05:45:10;13.32;;;7.05;;
78563;SDS011;67856;47.754;19.088;2023-08-24T05:48:14;16.92;;;7.35;;
78563;SDS011;67856;47.754;19.088;2023-08-24T05:51:16;16.90;;;7.70;;
78563;SDS011;67856;47.754;19.088;2023-08-24T05:54:19;15.40;;;8.10;;
78563;SDS011;67856;47.754;19.088;2023-08-24T05:57:21;11.37;;;7.87;;
78563;SDS011;67856;47.754;19.088;2023-08-24T06:00:24;16.42;;;7.47;;
78563;SDS011;67856;47.754;19.088;2023-08-24T06:03:26;16.60;;;7.50;;
78563;SDS011;67856;47.754;19.088;2023-08-24T06:06:29;16.85;;;7.60;;
78563;SDS011;67856;47.754;19.088;2023-08-24T06:09:31;14.45;;;7.70;;
78563;SDS011;67856;47.754;19.088;2023-08-24T06:12:35;15.10;;;7.33;;
78563;SDS011;67856;47.754;19.088;2023-08-24T06:15:38;17.30;;;7.70;;
78563;SDS011;67856;47.754;19.088;2023-08-24T06:18:40;21.08;;;8.25;;
78563;SDS011;67856;47.754;19.088;2023-08-24T06:21:44;17.30;;;7.90;;
78563;SDS011;67856;47.754;19.088;2023-08-24T06:24:46;19.80;;;8.15;;
78563;SDS011;67856;47.754;19.088;2023-08-24T06:27:49;15.00;;;7.97;;
78563;SDS011;67856;47.754;19.088;2023-08-24T06:30:52;15.00;;;7.80;;
78563;SDS011;67856;47.754;19.088;2023-08-24T06:33:56;27.17;;;8.23;;
78563;SDS011;67856;47.754;19.088;2023-08-24T06:37:00;14.10;;;8.35;;
78563;SDS011;67856;47.754;19.088;2023-08-24T06:40:03;13.80;;;8.10;;
78563;SDS011;67856;47.754;19.088;2023-08-24T06:43:06;12.03;;;7.70;;
78563;SDS011;67856;47.754;19.088;2023-08-24T06:46:09;12.52;;;8.25;;
78563;SDS011;67856;47.754;19.088;2023-08-24T06:49:11;10.68;;;7.78;;
78563;SDS011;67856;47.754;19.088;2023-08-24T06:52:14;17.67;;;8.50;;
78563;SDS011;67856;47.754;19.088;2023-08-24T06:55:16;13.10;;;7.95;;
78563;SDS011;67856;47.754;19.088;2023-08-24T06:58:19;12.17;;;8.20;;
78563;SDS011;67856;47.754;19.088;2023-08-24T07:01:21;12.65;;;7.80;;
78563;SDS011;67856;47.754;19.088;2023-08-24T07:04:24;13.23;;;8.57;;
78563;SDS011;67856;47.754;19.088;2023-08-24T07:07:28;15.20;;;8.15;;
78563;SDS011;67856;47.754;19.088;2023-08-24T07:10:30;20.85;;;8.50;;
78563;SDS011;67856;47.754;19.088;2023-08-24T07:13:33;11.97;;;8.13;;
78563;SDS011;67856;47.754;19.088;2023-08-24T07:16:37;14.77;;;8.05;;
78563;SDS011;67856;47.754;19.088;2023-08-24T07:19:39;16.50;;;8.52;;
78563;SDS011;67856;47.754;19.088;2023-08-24T07:22:42;13.23;;;8.45;;
78563;SDS011;67856;47.754;19.088;2023-08-24T07:25:44;14.63;;;8.35;;
78563;SDS011;67856;47.754;19.088;2023-08-24T07:28:47;10.73;;;8.30;;
78563;SDS011;67856;47.754;19.088;2023-08-24T07:31:49;12.20;;;8.35;;
78563;SDS011;67856;47.754;19.088;2023-08-24T07:34:52;14.68;;;9.23;;
78563;SDS011;67856;47.754;19.088;2023-08-24T07:37:55;14.10;;;8.73;;
78563;SDS011;67856;47.754;19.088;2023-08-24T07:40:58;15.38;;;8.63;;
78563;SDS011;67856;47.754;19.088;2023-08-24T07:44:00;11.33;;;8.10;;
78563;SDS011;67856;47.754;19.088;2023-08-24T07:47:03;12.07;;;8.43;;
78563;SDS011;67856;47.754;19.088;2023-08-24T07:50:06;13.35;;;8.57;;
78563;SDS011;67856;47.754;19.088;2023-08-24T07:53:10;19.35;;;8.27;;
78563;SDS011;67856;47.754;19.088;2023-08-24T07:56:13;10.02;;;8.02;;
78563;SDS011;67856;47.754;19.088;2023-08-24T07:59:15;14.53;;;8.47;;
78563;SDS011;67856;47.754;19.088;2023-08-24T08:02:18;18.40;;;8.20;;
78563;SDS011;67856;47.754;19.088;2023-08-24T08:17:43;10.60;;;8.32;;
78563;SDS011;67856;47.754;19.088;2023-08-24T08:20:45;9.63;;;8.13;;
78563;SDS011;67856;47.754;19.088;2023-08-24T08:23:48;10.47;;;8.17;;
78563;SDS011;67856;47.754;19.088;2023-08-24T08:26:51;13.93;;;7.60;;
78563;SDS011;67856;47.754;19.088;2023-08-24T08:29:54;11.32;;;7.97;;
78563;SDS011;67856;47.754;19.088;2023-08-24T08:32:57;12.60;;;7.53;;
78563;SDS011;67856;47.754;19.088;2023-08-24T08:36:04;10.15;;;7.35;;
78563;SDS011;67856;47.754;19.088;2023-08-24T08:39:06;11.23;;;8.13;;
78563;SDS011;67856;47.754;19.088;2023-08-24T08:42:13;12.23;;;7.83;;
78563;SDS011;67856;47.754;19.088;2023-08-24T08:45:16;13.70;;;8.07;;
78563;SDS011;67856;47.754;19.088;2023-08-24T08:48:21;11.63;;;8.18;;
78563;SDS011;67856;47.754;19.088;2023-08-24T08:51:23;16.38;;;7.82;;
78563;SDS011;67856;47.754;19.088;2023-08-24T08:54:26;13.05;;;8.23;;
78563;SDS011;67856;47.754;19.088;2023-08-24T08:57:29;11.10;;;7.90;;
78563;SDS011;67856;47.754;19.088;2023-08-24T09:00:35;11.90;;;8.40;;
78563;SDS011;67856;47.754;19.088;2023-08-24T09:03:39;14.20;;;7.75;;
78563;SDS011;67856;47.754;19.088;2023-08-24T09:06:41;12.00;;;8.00;;
78563;SDS011;67856;47.754;19.088;2023-08-24T09:09:44;12.97;;;7.83;;
78563;SDS011;67856;47.754;19.088;2023-08-24T09:12:46;16.60;;;7.57;;
78563;SDS011;67856;47.754;19.088;2023-08-24T09:15:50;8.68;;;7.20;;
78563;SDS011;67856;47.754;19.088;2023-08-24T09:18:54;10.38;;;7.60;;
78563;SDS011;67856;47.754;19.088;2023-08-24T09:21:57;12.32;;;7.30;;
78563;SDS011;67856;47.754;19.088;2023-08-24T09:25:00;11.85;;;7.97;;
78563;SDS011;67856;47.754;19.088;2023-08-24T09:28:06;11.23;;;7.30;;
78563;SDS011;67856;47.754;19.088;2023-08-24T09:31:11;10.15;;;6.90;;
78563;SDS011;67856;47.754;19.088;2023-08-24T09:34:14;9.40;;;7.45;;
78563;SDS011;67856;47.754;19.088;2023-08-24T09:37:16;8.00;;;6.90;;
78563;SDS011;67856;47.754;19.088;2023-08-24T09:40:23;8.20;;;6.67;;
78563;SDS011;67856;47.754;19.088;2023-08-24T09:43:26;11.30;;;6.70;;
78563;SDS011;67856;47.754;19.088;2023-08-24T09:46:32;11.23;;;6.63;;
78563;SDS011;67856;47.754;19.088;2023-08-24T09:49:34;8.95;;;6.70;;
78563;SDS011;67856;47.754;19.088;2023-08-24T09:52:37;11.10;;;6.75;;
78563;SDS011;67856;47.754;19.088;2023-08-24T09:55:40;11.67;;;7.03;;
78563;SDS011;67856;47.754;19.088;2023-08-24T09:58:43;10.50;;;7.03;;
78563;SDS011;67856;47.754;19.088;2023-08-24T10:01:48;10.02;;;7.30;;
78563;SDS011;67856;47.754;19.088;2023-08-24T10:04:51;9.50;;;6.70;;
78563;SDS011;67856;47.754;19.088;2023-08-24T10:07:55;8.35;;;6.80;;
78563;SDS011;67856;47.754;19.088;2023-08-24T10:10:58;11.90;;;6.50;;
78563;SDS011;67856;47.754;19.088;2023-08-24T10:14:05;8.53;;;6.30;;
78563;SDS011;67856;47.754;19.088;2023-08-24T10:17:12;10.68;;;6.30;;
78563;SDS011;67856;47.754;19.088;2023-08-24T10:20:17;8.80;;;6.30;;
78563;SDS011;67856;47.754;19.088;2023-08-24T10:23:21;12.73;;;6.60;;
78563;SDS011;67856;47.754;19.088;2023-08-24T10:26:24;11.50;;;6.55;;
78563;SDS011;67856;47.754;19.088;2023-08-24T10:29:27;9.83;;;6.80;;
78563;SDS011;67856;47.754;19.088;2023-08-24T10:32:29;8.27;;;6.53;;
78563;SDS011;67856;47.754;19.088;2023-08-24T10:35:33;11.50;;;6.45;;
78563;SDS011;67856;47.754;19.088;2023-08-24T10:38:40;13.20;;;6.70;;
78563;SDS011;67856;47.754;19.088;2023-08-24T10:41:51;9.80;;;6.90;;
78563;SDS011;67856;47.754;19.088;2023-08-24T10:44:54;18.47;;;6.50;;
78563;SDS011;67856;47.754;19.088;2023-08-24T10:47:56;17.23;;;6.85;;
78563;SDS011;67856;47.754;19.088;2023-08-24T10:51:34;10.10;;;6.30;;
78563;SDS011;67856;47.754;19.088;2023-08-24T10:54:32;12.95;;;6.50;;
78563;SDS011;67856;47.754;19.088;2023-08-24T10:57:35;16.40;;;6.40;;
78563;SDS011;67856;47.754;19.088;2023-08-24T11:00:40;9.00;;;6.17;;
78563;SDS011;67856;47.754;19.088;2023-08-24T11:03:51;11.90;;;6.13;;
78563;SDS011;67856;47.754;19.088;2023-08-24T11:06:58;10.70;;;6.55;;
78563;SDS011;67856;47.754;19.088;2023-08-24T11:10:11;10.43;;;5.97;;
78563;SDS011;67856;47.754;19.088;2023-08-24T11:13:15;11.20;;;5.80;;
78563;SDS011;67856;47.754;19.088;2023-08-24T11:16:38;9.67;;;5.83;;
78563;SDS011;67856;47.754;19.088;2023-08-24T11:19:46;12.18;;;5.57;;
78563;SDS011;67856;47.754;19.088;2023-08-24T11:22:57;17.05;;;5.68;;
78563;SDS011;67856;47.754;19.088;2023-08-24T11:26:00;12.75;;;5.80;;
78563;SDS011;67856;47.754;19.088;2023-08-24T11:29:06;13.47;;;5.80;;
78563;SDS011;67856;47.754;19.088;2023-08-24T11:32:08;11.13;;;5.90;;
78563;SDS011;67856;47.754;19.088;2023-08-24T11:35:11;15.90;;;5.88;;
78563;SDS011;67856;47.754;19.088;2023-08-24T11:38:14;7.82;;;5.68;;
78563;SDS011;67856;47.754;19.088;2023-08-24T11:41:17;10.23;;;6.25;;
78563;SDS011;67856;47.754;19.088;2023-08-24T11:44:20;15.43;;;5.70;;
78563;SDS011;67856;47.754;19.088;2023-08-24T11:47:30;7.10;;;5.23;;
78563;SDS011;67856;47.754;19.088;2023-08-24T11:50:32;9.50;;;5.30;;
78563;SDS011;67856;47.754;19.088;2023-08-24T11:53:41;9.57;;;5.60;;
78563;SDS011;67856;47.754;19.088;2023-08-24T11:56:45;11.35;;;5.22;;
78563;SDS011;67856;47.754;19.088;2023-08-24T11:59:48;8.00;;;5.17;;
78563;SDS011;67856;47.754;19.088;2023-08-24T12:02:51;8.30;;;5.50;;
78563;SDS011;67856;47.754;19.088;2023-08-24T12:05:53;9.30;;;5.35;;
78563;SDS011;67856;47.754;19.088;2023-08-24T12:08:58;9.45;;;5.35;;
78563;SDS011;67856;47.754;19.088;2023-08-24T12:12:01;9.63;;;5.55;;
78563;SDS011;67856;47.754;19.088;2023-08-24T12:15:04;7.57;;;5.60;;
78563;SDS011;67856;47.754;19.088;2023-08-24T12:18:13;8.23;;;5.50;;
78563;SDS011;67856;47.754;19.088;2023-08-24T12:21:16;8.38;;;5.85;;
78563;SDS011;67856;47.754;19.088;2023-08-24T12:24:19;9.48;;;5.03;;
78563;SDS011;67856;47.754;19.088;2023-08-24T12:27:23;8.93;;;5.15;;
78563;SDS011;67856;47.754;19.088;2023-08-24T12:30:30;7.15;;;5.10;;
78563;SDS011;67856;47.754;19.088;2023-08-24T12:33:38;6.67;;;5.27;;
78563;SDS011;67856;47.754;19.088;2023-08-24T12:36:41;7.93;;;5.40;;
78563;SDS011;67856;47.754;19.088;2023-08-24T12:39:45;8.63;;;5.57;;
78563;SDS011;67856;47.754;19.088;2023-08-24T12:42:47;9.63;;;5.63;;
78563;SDS011;67856;47.754;19.088;2023-08-24T12:45:50;8.50;;;5.45;;
78563;SDS011;67856;47.754;19.088;2023-08-24T12:48:52;6.93;;;5.37;;
78563;SDS011;67856;47.754;19.088;2023-08-24T12:51:57;8.13;;;5.00;;
78563;SDS011;67856;47.754;19.088;2023-08-24T12:55:00;6.80;;;4.90;;
78563;SDS011;67856;47.754;19.088;2023-08-24T12:58:02;8.57;;;5.30;;
78563;SDS011;67856;47.754;19.088;2023-08-24T13:01:05;8.77;;;5.20;;
78563;SDS011;67856;47.754;19.088;2023-08-24T13:04:08;7.93;;;5.60;;
78563;SDS011;67856;47.754;19.088;2023-08-24T13:07:10;9.95;;;5.57;;
78563;SDS011;67856;47.754;19.088;2023-08-24T13:10:13;9.38;;;5.20;;
78563;SDS011;67856;47.754;19.088;2023-08-24T13:13:16;7.13;;;5.05;;
78563;SDS011;67856;47.754;19.088;2023-08-24T13:16:18;9.00;;;5.17;;
78563;SDS011;67856;47.754;19.088;2023-08-24T13:19:21;7.97;;;5.13;;
78563;SDS011;67856;47.754;19.088;2023-08-24T13:22:23;10.90;;;5.30;;
78563;SDS011;67856;47.754;19.088;2023-08-24T13:25:26;8.30;;;5.28;;
78563;SDS011;67856;47.754;19.088;2023-08-24T13:28:28;9.23;;;5.40;;
78563;SDS011;67856;47.754;19.088;2023-08-24T13:31:32;7.60;;;5.38;;
78563;SDS011;67856;47.754;19.088;2023-08-24T13:34:36;9.17;;;5.10;;
78563;SDS011;67856;47.754;19.088;2023-08-24T13:37:38;11.02;;;5.70;;
78563;SDS011;67856;47.754;19.088;2023-08-24T13:40:41;7.70;;;5.65;;
78563;SDS011;67856;47.754;19.088;2023-08-24T13:43:43;7.35;;;5.22;;
78563;SDS011;67856;47.754;19.088;2023-08-24T13:46:46;8.30;;;5.30;;
78563;SDS011;67856;47.754;19.088;2023-08-24T13:49:48;6.57;;;5.53;;
78563;SDS011;67856;47.754;19.088;2023-08-24T13:52:51;8.57;;;5.22;;
78563;SDS011;67856;47.754;19.088;2023-08-24T13:55:54;7.85;;;5.45;;
78563;SDS011;67856;47.754;19.088;2023-08-24T13:58:56;12.07;;;5.45;;
78563;SDS011;67856;47.754;19.088;2023-08-24T14:01:58;16.10;;;5.70;;
78563;SDS011;67856;47.754;19.088;2023-08-24T14:05:01;11.83;;;5.70;;
78563;SDS011;67856;47.754;19.088;2023-08-24T14:08:04;13.73;;;5.55;;
78563;SDS011;67856;47.754;19.088;2023-08-24T14:11:06;6.90;;;5.13;;
78563;SDS011;67856;47.754;19.088;2023-08-24T14:14:09;7.95;;;5.50;;
78563;SDS011;67856;47.754;19.088;2023-08-24T14:17:12;11.27;;;5.70;;
78563;SDS011;67856;47.754;19.088;2023-08-24T14:20:14;10.47;;;5.60;;
78563;SDS011;67856;47.754;19.088;2023-08-24T14:23:18;8.30;;;5.50;;
78563;SDS011;67856;47.754;19.088;2023-08-24T14:26:20;6.88;;;4.88;;
78563;SDS011;67856;47.754;19.088;2023-08-24T14:29:22;9.02;;;5.15;;
78563;SDS011;67856;47.754;19.088;2023-08-24T14:32:25;9.90;;;5.23;;
78563;SDS011;67856;47.754;19.088;2023-08-24T14:35:27;8.73;;;5.50;;
78563;SDS011;67856;47.754;19.088;2023-08-24T14:38:34;6.93;;;5.10;;
78563;SDS011;67856;47.754;19.088;2023-08-24T14:41:37;11.45;;;5.53;;
78563;SDS011;67856;47.754;19.088;2023-08-24T14:44:39;12.38;;;5.30;;
78563;SDS011;67856;47.754;19.088;2023-08-24T14:47:42;7.07;;;5.43;;
78563;SDS011;67856;47.754;19.088;2023-08-24T14:50:44;11.43;;;5.53;;
78563;SDS011;67856;47.754;19.088;2023-08-24T14:53:47;12.00;;;5.60;;
78563;SDS011;67856;47.754;19.088;2023-08-24T14:56:49;10.02;;;6.00;;
78563;SDS011;67856;47.754;19.088;2023-08-24T14:59:51;14.07;;;5.90;;
78563;SDS011;67856;47.754;19.088;2023-08-24T15:02:54;10.45;;;5.75;;
78563;SDS011;67856;47.754;19.088;2023-08-24T15:09:06;10.23;;;5.95;;
78563;SDS011;67856;47.754;19.088;2023-08-24T15:12:08;8.68;;;5.57;;
78563;SDS011;67856;47.754;19.088;2023-08-24T15:15:11;11.77;;;5.75;;
78563;SDS011;67856;47.754;19.088;2023-08-24T15:18:13;8.68;;;5.47;;
78563;SDS011;67856;47.754;19.088;2023-08-24T15:21:16;9.33;;;5.67;;
78563;SDS011;67856;47.754;19.088;2023-08-24T15:24:18;9.48;;;5.43;;
78563;SDS011;67856;47.754;19.088;2023-08-24T15:27:21;7.07;;;5.63;;
78563;SDS011;67856;47.754;19.088;2023-08-24T15:30:24;7.15;;;5.55;;
78563;SDS011;67856;47.754;19.088;2023-08-24T15:33:26;9.67;;;5.90;;
78563;SDS011;67856;47.754;19.088;2023-08-24T15:36:29;9.03;;;5.47;;
78563;SDS011;67856;47.754;19.088;2023-08-24T15:39:38;8.65;;;5.63;;
78563;SDS011;67856;47.754;19.088;2023-08-24T15:42:41;8.70;;;5.35;;
78563;SDS011;67856;47.754;19.088;2023-08-24T15:45:44;8.77;;;5.47;;
78563;SDS011;67856;47.754;19.088;2023-08-24T15:48:46;8.50;;;5.63;;
78563;SDS011;67856;47.754;19.088;2023-08-24T15:51:49;7.80;;;5.80;;
78563;SDS011;67856;47.754;19.088;2023-08-24T15:54:51;8.32;;;4.95;;
78563;SDS011;67856;47.754;19.088;2023-08-24T15:57:54;8.90;;;5.45;;
78563;SDS011;67856;47.754;19.088;2023-08-24T16:00:56;7.22;;;5.38;;
78563;SDS011;67856;47.754;19.088;2023-08-24T16:03:59;10.40;;;5.37;;
78563;SDS011;67856;47.754;19.088;2023-08-24T16:07:01;9.33;;;5.60;;
78563;SDS011;67856;47.754;19.088;2023-08-24T16:10:04;8.23;;;5.22;;
78563;SDS011;67856;47.754;19.088;2023-08-24T16:13:07;8.75;;;5.40;;
78563;SDS011;67856;47.754;19.088;2023-08-24T16:16:09;10.73;;;5.70;;
78563;SDS011;67856;47.754;19.088;2023-08-24T16:19:12;9.70;;;5.60;;
78563;SDS011;67856;47.754;19.088;2023-08-24T16:22:14;9.23;;;5.50;;
78563;SDS011;67856;47.754;19.088;2023-08-24T16:25:17;6.10;;;5.22;;
78563;SDS011;67856;47.754;19.088;2023-08-24T16:28:19;9.38;;;5.55;;
78563;SDS011;67856;47.754;19.088;2023-08-24T16:31:21;8.02;;;5.38;;
78563;SDS011;67856;47.754;19.088;2023-08-24T16:34:24;9.47;;;5.43;;
78563;SDS011;67856;47.754;19.088;2023-08-24T16:37:26;8.93;;;5.47;;
78563;SDS011;67856;47.754;19.088;2023-08-24T16:40:34;7.97;;;5.43;;
78563;SDS011;67856;47.754;19.088;2023-08-24T16:43:37;7.88;;;5.50;;
78563;SDS011;67856;47.754;19.088;2023-08-24T16:46:39;7.68;;;5.60;;
78563;SDS011;67856;47.754;19.088;2023-08-24T16:49:42;9.83;;;5.40;;
78563;SDS011;67856;47.754;19.088;2023-08-24T16:52:45;10.53;;;5.60;;
78563;SDS011;67856;47.754;19.088;2023-08-24T16:55:53;7.22;;;5.43;;
78563;SDS011;67856;47.754;19.088;2023-08-24T16:58:56;8.15;;;5.50;;
78563;SDS011;67856;47.754;19.088;2023-08-24T17:01:58;7.10;;;5.50;;
78563;SDS011;67856;47.754;19.088;2023-08-24T17:05:01;8.93;;;5.78;;
78563;SDS011;67856;47.754;19.088;2023-08-24T17:08:08;7.50;;;5.60;;
78563;SDS011;67856;47.754;19.088;2023-08-24T17:11:11;7.05;;;4.95;;
78563;SDS011;67856;47.754;19.088;2023-08-24T17:14:13;9.45;;;5.50;;
78563;SDS011;67856;47.754;19.088;2023-08-24T17:17:16;6.93;;;5.20;;
78563;SDS011;67856;47.754;19.088;2023-08-24T17:20:18;6.80;;;5.07;;
78563;SDS011;67856;47.754;19.088;2023-08-24T17:23:21;7.40;;;5.33;;
78563;SDS011;67856;47.754;19.088;2023-08-24T17:26:24;7.05;;;5.18;;
78563;SDS011;67856;47.754;19.088;2023-08-24T17:29:26;7.55;;;5.28;;
78563;SDS011;67856;47.754;19.088;2023-08-24T17:32:28;7.63;;;4.97;;
78563;SDS011;67856;47.754;19.088;2023-08-24T17:35:31;6.93;;;5.00;;
78563;SDS011;67856;47.754;19.088;2023-08-24T17:38:33;6.10;;;4.90;;
78563;SDS011;67856;47.754;19.088;2023-08-24T17:41:37;6.70;;;5.20;;
78563;SDS011;67856;47.754;19.088;2023-08-24T17:44:42;7.30;;;5.00;;
78563;SDS011;67856;47.754;19.088;2023-08-24T17:47:45;6.82;;;4.93;;
78563;SDS011;67856;47.754;19.088;2023-08-24T17:50:52;8.40;;;5.17;;
78563;SDS011;67856;47.754;19.088;2023-08-24T17:53:58;6.80;;;4.87;;
78563;SDS011;67856;47.754;19.088;2023-08-24T17:57:00;8.35;;;4.90;;
78563;SDS011;67856;47.754;19.088;2023-08-24T18:00:03;6.47;;;4.90;;
78563;SDS011;67856;47.754;19.088;2023-08-24T18:03:15;6.00;;;4.80;;
78563;SDS011;67856;47.754;19.088;2023-08-24T18:06:18;6.23;;;4.63;;
78563;SDS011;67856;47.754;19.088;2023-08-24T18:09:21;7.27;;;4.90;;
78563;SDS011;67856;47.754;19.088;2023-08-24T18:12:23;6.45;;;4.90;;
78563;SDS011;67856;47.754;19.088;2023-08-24T18:15:26;7.85;;;5.13;;
78563;SDS011;67856;47.754;19.088;2023-08-24T18:18:35;6.95;;;5.20;;
78563;SDS011;67856;47.754;19.088;2023-08-24T18:21:40;6.20;;;5.07;;